Time;durP1;ratioP1;P1;durP2;ratioP2;P2;SDS_P1;SDS_P2;PMS_P1;PMS_P2;Temp;Humidity;BMP_temperature;BMP_pressure;BME280_temperature;BME280_humidity;BME280_pressure;Samples;Min_cycle;Max_cycle;Signal;HPM_P1;HPM_P2
2023/04/26 00:01:38;;;;;;;6.85;2.38;;;;;;;8.41;66.25;101063.38;5010823;28;20180;-43
2023/04/26 00:04:05;;;;;;;4.60;1.83;;;;;;;8.39;66.50;101071.16;5028858;28;20054;-42
2023/04/26 00:06:32;;;;;;;8.27;2.33;;;;;;;8.38;66.60;101066.75;5028663;28;20079;-43
2023/04/26 00:08:59;;;;;;;9.40;1.92;;;;;;;8.37;66.73;101067.88;5028837;28;20060;-49
2023/04/26 00:11:25;;;;;;;8.02;2.30;;;;;;;8.37;66.80;101073.41;5028858;28;20041;-43
2023/04/26 00:13:53;;;;;;;5.20;2.30;;;;;;;8.38;66.89;101069.53;5027512;28;20077;-43
2023/04/26 00:16:20;;;;;;;7.05;2.10;;;;;;;8.35;66.97;101065.47;5027008;28;20064;-43
2023/04/26 00:18:48;;;;;;;5.90;2.28;;;;;;;8.32;67.16;101060.59;5028843;28;20053;-43
2023/04/26 00:21:14;;;;;;;4.10;2.78;;;;;;;8.31;67.31;101064.47;5043606;28;20052;-43
2023/04/26 00:23:41;;;;;;;6.00;2.08;;;;;;;8.32;67.65;101059.75;5028515;28;20037;-43
2023/04/26 00:26:09;;;;;;;5.43;2.47;;;;;;;8.28;67.73;101054.09;5028295;28;20295;-43
2023/04/26 00:28:36;;;;;;;5.75;1.90;;;;;;;8.24;67.70;101063.28;5028400;28;20049;-42
2023/04/26 00:31:02;;;;;;;7.68;2.45;;;;;;;8.25;67.92;101064.94;5031274;28;20049;-43
2023/04/26 00:33:29;;;;;;;5.90;2.15;;;;;;;8.26;67.92;101063.81;5028407;28;20520;-43
2023/04/26 00:35:56;;;;;;;7.43;1.95;;;;;;;8.27;67.64;101062.69;5028529;28;20085;-43
2023/04/26 00:38:24;;;;;;;4.53;1.73;;;;;;;8.25;67.80;101056.66;5028025;28;20577;-45
2023/04/26 00:40:51;;;;;;;6.10;2.28;;;;;;;8.24;67.97;101057.78;5028520;28;20047;-42
2023/04/26 00:43:18;;;;;;;5.85;2.03;;;;;;;8.22;67.93;101058.09;5025820;28;20475;-43
2023/04/26 00:45:45;;;;;;;8.07;2.38;;;;;;;8.21;68.04;101058.41;5029195;28;20399;-43
2023/04/26 00:48:11;;;;;;;3.75;1.70;;;;;;;8.21;68.17;101052.91;5029008;28;20072;-45
2023/04/26 00:50:38;;;;;;;5.93;2.38;;;;;;;8.21;67.85;101052.91;5032330;28;20041;-43
2023/04/26 00:53:07;;;;;;;3.47;1.77;;;;;;;8.20;68.06;101037.50;5032116;28;20537;-43
2023/04/26 00:55:34;;;;;;;2.33;1.70;;;;;;;8.20;68.09;101045.78;5031897;28;20067;-43
2023/04/26 00:58:01;;;;;;;7.15;2.00;;;;;;;8.20;68.19;101043.00;5046748;28;20045;-45
2023/04/26 01:00:28;;;;;;;5.63;2.08;;;;;;;8.20;68.71;101045.78;5029024;28;20060;-43
2023/04/26 01:02:55;;;;;;;3.13;1.70;;;;;;;8.19;68.30;101033.91;5031089;28;20533;-43
2023/04/26 01:05:22;;;;;;;7.28;2.05;;;;;;;8.17;68.52;101033.44;5031511;28;20049;-45
2023/04/26 01:07:49;;;;;;;5.05;2.38;;;;;;;8.15;68.52;101019.16;5031359;28;20059;-43
2023/04/26 01:10:16;;;;;;;3.72;1.88;;;;;;;8.12;68.79;101013.47;5032471;28;20045;-43
2023/04/26 01:12:43;;;;;;;6.65;1.70;;;;;;;8.11;68.84;101009.09;5031290;28;20208;-43
2023/04/26 01:15:10;;;;;;;6.40;2.53;;;;;;;8.12;68.87;101010.72;5030391;28;20062;-43
2023/04/26 01:17:37;;;;;;;10.45;1.77;;;;;;;8.11;68.96;101001.63;5031454;28;20144;-42
2023/04/26 01:20:07;;;;;;;4.88;1.58;;;;;;;8.13;68.82;101001.31;5046962;28;20065;-43
2023/04/26 01:22:35;;;;;;;17.40;3.00;;;;;;;8.13;68.76;101001.31;5031539;28;21630;-44
2023/04/26 01:25:03;;;;;;;5.50;1.88;;;;;;;8.12;68.88;101002.44;5031381;28;20049;-42
2023/04/26 01:27:30;;;;;;;4.45;1.83;;;;;;;8.11;68.75;100989.78;5041284;28;20049;-43
2023/04/26 01:29:56;;;;;;;6.30;2.28;;;;;;;8.11;69.04;101003.56;5033738;28;20049;-45
2023/04/26 01:32:24;;;;;;;8.57;1.92;;;;;;;8.11;68.95;101001.63;5033997;28;20095;-43
2023/04/26 01:34:51;;;;;;;7.05;2.10;;;;;;;8.12;68.97;100995.00;5031099;28;20045;-49
2023/04/26 01:37:18;;;;;;;4.53;1.75;;;;;;;8.12;69.02;100991.41;5030853;28;20144;-43
2023/04/26 01:39:45;;;;;;;4.05;1.65;;;;;;;8.13;69.02;100998.56;5031494;28;20046;-42
2023/04/26 01:42:12;;;;;;;6.55;2.08;;;;;;;8.12;69.12;100986.72;5029621;28;20463;-42
2023/04/26 01:44:38;;;;;;;4.00;1.83;;;;;;;8.14;69.12;100980.88;5038132;28;20498;-46
2023/04/26 01:47:07;;;;;;;5.13;1.48;;;;;;;8.14;69.23;100975.34;5032690;28;20053;-44
2023/04/26 01:49:34;;;;;;;6.05;1.75;;;;;;;8.14;69.07;100976.16;5030926;28;20053;-42
2023/04/26 01:52:01;;;;;;;2.45;1.50;;;;;;;8.15;69.08;100975.03;5030546;28;20049;-43
2023/04/26 01:54:28;;;;;;;5.57;1.77;;;;;;;8.15;69.02;100966.78;5030663;28;20041;-45
2023/04/26 01:56:54;;;;;;;4.20;1.70;;;;;;;8.15;69.04;100971.47;5030409;28;20041;-46
2023/04/26 01:59:21;;;;;;;8.63;1.73;;;;;;;8.15;69.20;100968.72;5016869;28;20065;-42
2023/04/26 02:01:48;;;;;;;5.60;1.80;;;;;;;8.16;69.21;100968.38;5028807;28;20053;-42
2023/04/26 02:04:15;;;;;;;7.65;3.50;;;;;;;8.16;69.40;100964.81;5030511;28;20439;-42
2023/04/26 02:06:41;;;;;;;6.18;2.38;;;;;;;8.16;69.64;100967.56;5030673;28;20048;-42
2023/04/26 02:09:09;;;;;;;5.70;2.05;;;;;;;8.16;69.50;100965.63;5030459;28;20315;-46
2023/04/26 02:11:36;;;;;;;2.22;1.35;;;;;;;8.16;69.57;100967.56;5030738;28;20042;-42
2023/04/26 02:14:03;;;;;;;4.85;1.85;;;;;;;8.16;69.77;100967.56;5028778;28;20115;-43
2023/04/26 02:16:31;;;;;;;4.43;1.75;;;;;;;8.14;69.75;100964.31;5030693;28;20042;-43
2023/04/26 02:18:58;;;;;;;5.93;1.90;;;;;;;8.16;69.77;100964.81;5029490;28;20048;-48
2023/04/26 02:21:27;;;;;;;4.63;1.50;;;;;;;8.16;69.64;100965.63;5029638;28;20558;-43
2023/04/26 02:23:54;;;;;;;9.75;2.20;;;;;;;8.18;69.84;100966.09;5030166;28;20053;-42
2023/04/26 02:26:20;;;;;;;5.80;2.25;;;;;;;8.18;69.72;100960.59;5030034;28;20049;-43
2023/04/26 02:28:47;;;;;;;7.13;2.38;;;;;;;8.21;69.94;100959.13;5028519;28;20466;-43
2023/04/26 02:31:14;;;;;;;5.05;2.00;;;;;;;8.21;69.98;100948.91;5024021;28;20053;-43
2023/04/26 02:33:40;;;;;;;7.22;2.25;;;;;;;8.19;69.94;100955.88;5029855;28;20041;-43
2023/04/26 02:36:07;;;;;;;5.57;1.98;;;;;;;8.19;70.07;100953.94;5030601;28;20050;-42
2023/04/26 02:38:35;;;;;;;8.20;1.98;;;;;;;8.18;70.26;100948.75;5029709;28;20072;-44
2023/04/26 02:41:03;;;;;;;5.95;2.20;;;;;;;8.19;70.13;100955.88;5029632;28;20492;-43
2023/04/26 02:43:29;;;;;;;4.75;3.03;;;;;;;8.17;70.32;100947.13;5026712;28;20061;-50
2023/04/26 02:45:59;;;;;;;7.28;2.38;;;;;;;8.17;70.48;100947.13;5041369;28;20076;-42
2023/04/26 02:48:26;;;;;;;5.43;2.47;;;;;;;8.18;70.42;100944.03;5029554;28;20049;-42
2023/04/26 02:50:52;;;;;;;9.90;2.25;;;;;;;8.18;70.57;100946.00;5030298;28;20056;-43
2023/04/26 02:53:19;;;;;;;11.43;3.60;;;;;;;8.17;70.72;100936.09;5029759;28;20065;-48
2023/04/26 02:55:46;;;;;;;7.95;2.00;;;;;;;8.16;70.81;100939.97;5029189;28;20044;-42
2023/04/26 02:58:12;;;;;;;7.30;2.88;;;;;;;8.15;70.88;100932.88;5029443;28;20045;-47
2023/04/26 03:00:45;;;;;;;11.80;2.78;;;;;;;8.13;71.12;100932.38;5064380;23;21035;-43
2023/04/26 03:03:12;;;;;;;7.53;2.65;;;;;;;8.11;71.24;100926.34;5031302;28;20457;-43
2023/04/26 03:05:40;;;;;;;5.82;2.75;;;;;;;8.08;71.46;100927.81;5029436;28;20399;-42
2023/04/26 03:08:07;;;;;;;5.80;2.53;;;;;;;8.10;71.75;100927.50;5029743;28;20079;-43
2023/04/26 03:10:33;;;;;;;6.82;2.60;;;;;;;8.08;71.89;100927.00;5028769;28;20056;-43
2023/04/26 03:13:00;;;;;;;4.38;2.47;;;;;;;8.05;71.98;100925.72;5028995;28;20056;-43
2023/04/26 03:15:27;;;;;;;12.40;2.55;;;;;;;8.05;72.32;100930.44;5029283;28;20136;-43
2023/04/26 03:17:53;;;;;;;10.05;2.72;;;;;;;8.05;72.46;100930.44;5029171;28;20060;-42
2023/04/26 03:20:20;;;;;;;3.80;1.83;;;;;;;8.04;72.54;100920.53;5028823;28;20084;-43
2023/04/26 03:22:47;;;;;;;6.40;2.58;;;;;;;8.03;72.82;100924.41;5028846;28;20518;-42
2023/04/26 03:25:15;;;;;;;6.80;2.53;;;;;;;8.01;72.88;100921.16;5029321;28;20056;-43
2023/04/26 03:27:41;;;;;;;9.95;3.08;;;;;;;7.96;73.07;100911.94;5028838;28;20046;-48
2023/04/26 03:30:08;;;;;;;3.30;2.13;;;;;;;7.96;72.95;100920.22;5035430;28;20049;-43
2023/04/26 03:32:35;;;;;;;11.25;3.67;;;;;;;7.94;73.29;100919.69;5030832;28;20041;-42
2023/04/26 03:35:03;;;;;;;7.15;2.75;;;;;;;7.94;73.18;100916.16;5007801;28;20488;-43
2023/04/26 03:37:31;;;;;;;7.25;2.78;;;;;;;7.95;73.22;100915.81;5026764;28;20037;-43
2023/04/26 03:39:58;;;;;;;6.50;2.50;;;;;;;7.95;73.28;100913.06;5029075;28;20045;-43
2023/04/26 03:42:24;;;;;;;12.60;3.35;;;;;;;7.94;73.47;100916.94;5033606;28;20045;-42
2023/04/26 03:44:51;;;;;;;4.45;2.65;;;;;;;7.93;73.54;100920.03;5046546;28;20056;-42
2023/04/26 03:47:18;;;;;;;7.60;2.83;;;;;;;7.93;73.68;100920.84;5029814;28;20049;-43
2023/04/26 03:49:44;;;;;;;12.93;3.53;;;;;;;7.91;73.80;100917.63;5028657;28;20053;-43
2023/04/26 03:52:11;;;;;;;8.93;3.30;;;;;;;7.90;73.87;100902.19;5028295;28;20049;-47
2023/04/26 03:54:38;;;;;;;6.53;2.55;;;;;;;7.89;74.09;100897.81;5028559;28;20570;-44
2023/04/26 03:57:04;;;;;;;8.82;2.20;;;;;;;7.89;74.18;100897.81;5028441;28;20566;-42
2023/04/26 03:59:31;;;;;;;10.93;2.90;;;;;;;7.89;74.22;100903.31;5034263;28;20052;-43
2023/04/26 04:01:58;;;;;;;4.40;3.03;;;;;;;7.89;74.26;100886.78;5028842;28;20062;-47
2023/04/26 04:04:24;;;;;;;10.98;2.90;;;;;;;7.88;74.25;100885.19;5028520;28;20046;-43
2023/04/26 04:06:52;;;;;;;5.68;2.45;;;;;;;7.86;74.41;100892.94;5028896;28;20060;-43
2023/04/26 04:09:18;;;;;;;6.70;2.40;;;;;;;7.85;74.64;100888.56;5028198;28;20059;-43
2023/04/26 04:11:45;;;;;;;4.50;2.70;;;;;;;7.85;74.98;100885.81;5028690;28;20057;-43
2023/04/26 04:14:13;;;;;;;8.88;2.85;;;;;;;7.84;74.78;100889.69;5028418;28;20050;-42
2023/04/26 04:16:39;;;;;;;10.57;3.20;;;;;;;7.81;74.99;100879.31;5029146;28;20034;-43
2023/04/26 04:19:06;;;;;;;20.80;3.80;;;;;;;7.82;75.19;100883.72;5028364;28;20376;-42
2023/04/26 04:21:33;;;;;;;10.18;2.95;;;;;;;7.80;75.18;100872.19;5028304;28;20570;-42
2023/04/26 04:24:00;;;;;;;5.13;2.47;;;;;;;7.79;75.20;100878.84;5032335;28;20546;-44
2023/04/26 04:26:29;;;;;;;12.63;2.72;;;;;;;7.80;75.23;100877.72;5032171;28;20060;-42
2023/04/26 04:28:59;;;;;;;4.43;2.30;;;;;;;7.78;75.48;100871.69;5013182;28;20559;-43
2023/04/26 04:31:26;;;;;;;9.32;3.05;;;;;;;7.76;75.50;100871.22;5040014;28;20045;-50
2023/04/26 04:33:52;;;;;;;9.80;3.13;;;;;;;7.75;75.52;100872.38;5038145;28;20057;-44
2023/04/26 04:36:19;;;;;;;7.45;2.78;;;;;;;7.72;75.63;100870.25;5032133;28;20495;-42
2023/04/26 04:38:46;;;;;;;6.32;2.72;;;;;;;7.69;75.69;100876.41;5032193;28;20047;-43
2023/04/26 04:41:13;;;;;;;12.48;3.97;;;;;;;7.62;75.68;100876.09;5032012;28;20403;-49
2023/04/26 04:43:40;;;;;;;9.18;2.95;;;;;;;7.63;75.85;100883.19;5032650;28;20046;-42
2023/04/26 04:46:07;;;;;;;6.28;4.22;;;;;;;7.61;75.89;100871.69;5041977;28;20088;-43
2023/04/26 04:48:37;;;;;;;6.20;2.78;;;;;;;7.59;75.96;100879.47;5032313;28;20471;-44
2023/04/26 04:51:05;;;;;;;11.30;2.70;;;;;;;7.56;76.08;100880.13;5032687;28;20076;-42
2023/04/26 04:53:31;;;;;;;9.23;2.88;;;;;;;7.54;76.38;100878.81;5032437;28;20390;-43
2023/04/26 04:55:58;;;;;;;5.53;3.03;;;;;;;7.54;76.45;100879.63;5032349;28;20087;-43
2023/04/26 04:58:25;;;;;;;3.72;2.42;;;;;;;7.52;76.54;100870.84;5014250;28;20628;-43
2023/04/26 05:00:54;;;;;;;12.60;3.28;;;;;;;7.51;76.65;100869.25;5032143;28;20073;-42
2023/04/26 05:03:21;;;;;;;7.93;2.90;;;;;;;7.51;76.70;100869.25;5031499;28;20049;-44
2023/04/26 05:05:48;;;;;;;4.57;2.58;;;;;;;7.52;76.81;100867.31;5014200;28;20042;-45
2023/04/26 05:08:16;;;;;;;5.68;2.92;;;;;;;7.51;76.72;100869.25;5032156;28;20124;-43
2023/04/26 05:10:44;;;;;;;9.77;3.30;;;;;;;7.51;76.68;100869.25;5031534;28;20041;-43
2023/04/26 05:13:11;;;;;;;6.28;2.88;;;;;;;7.51;76.80;100871.19;5031388;28;20399;-42
2023/04/26 05:15:37;;;;;;;7.20;3.20;;;;;;;7.53;76.95;100874.44;5031584;28;20049;-42
2023/04/26 05:18:04;;;;;;;8.25;2.78;;;;;;;7.55;77.03;100859.19;5031634;28;20046;-42
2023/04/26 05:20:31;;;;;;;25.48;4.93;;;;;;;7.57;77.21;100867.16;5031650;28;20065;-42
2023/04/26 05:22:57;;;;;;;10.85;3.70;;;;;;;7.59;77.25;100876.72;5031066;28;20542;-43
2023/04/26 05:25:24;;;;;;;6.50;2.83;;;;;;;7.61;77.15;100868.94;5031743;28;20053;-42
2023/04/26 05:27:52;;;;;;;8.27;3.30;;;;;;;7.62;77.40;100872.50;5031413;28;20054;-42
2023/04/26 05:30:19;;;;;;;4.78;3.60;;;;;;;7.63;77.29;100880.44;5038601;28;20045;-42
2023/04/26 05:32:46;;;;;;;8.52;4.07;;;;;;;7.65;77.52;100882.88;5030982;28;20280;-44
2023/04/26 05:35:13;;;;;;;6.68;3.17;;;;;;;7.66;77.45;100888.06;5030410;28;20506;-42
2023/04/26 05:37:40;;;;;;;7.93;4.35;;;;;;;7.69;77.79;100887.44;5030920;28;20038;-42
2023/04/26 05:40:08;;;;;;;7.07;2.88;;;;;;;7.71;77.87;100885.16;5030868;28;20068;-46
2023/04/26 05:42:35;;;;;;;6.22;3.13;;;;;;;7.74;77.95;100887.25;5031186;28;20052;-42
2023/04/26 05:45:02;;;;;;;5.82;3.25;;;;;;;7.76;78.15;100879.47;5041538;28;20372;-47
2023/04/26 05:47:29;;;;;;;6.10;3.83;;;;;;;7.78;78.19;100877.19;5030768;28;20041;-43
2023/04/26 05:49:56;;;;;;;10.43;3.33;;;;;;;7.81;78.25;100887.59;5030976;28;20069;-43
2023/04/26 05:52:23;;;;;;;9.90;3.83;;;;;;;7.83;78.41;100888.09;5030698;28;20487;-42
2023/04/26 05:54:49;;;;;;;4.15;2.95;;;;;;;7.87;78.21;100889.06;5030777;28;20053;-43
2023/04/26 05:57:17;;;;;;;7.32;3.28;;;;;;;7.90;78.43;100888.41;5030722;28;20041;-43
2023/04/26 05:59:44;;;;;;;10.32;4.18;;;;;;;7.94;78.43;100878.34;5030944;28;20468;-43
2023/04/26 06:02:11;;;;;;;13.57;4.10;;;;;;;7.97;78.46;100872.19;5030307;28;20499;-47
2023/04/26 06:04:38;;;;;;;7.97;4.15;;;;;;;7.99;78.46;100883.69;5030501;28;20045;-42
2023/04/26 06:07:06;;;;;;;6.63;4.47;;;;;;;8.03;78.62;100869.25;5030769;28;20409;-43
2023/04/26 06:09:32;;;;;;;9.43;5.25;;;;;;;8.09;78.71;100873.50;5030130;28;20046;-43
2023/04/26 06:11:59;;;;;;;7.18;3.83;;;;;;;8.13;78.74;100875.25;5030306;28;20123;-42
2023/04/26 06:14:26;;;;;;;12.52;4.45;;;;;;;8.19;78.83;100870.41;5030383;28;20046;-43
2023/04/26 06:16:57;;;;;;;10.48;3.67;;;;;;;8.25;78.70;100874.63;5031181;28;20045;-42
2023/04/26 06:19:24;;;;;;;11.13;5.82;;;;;;;8.30;78.87;100877.22;5029914;28;20041;-42
2023/04/26 06:21:54;;;;;;;7.70;3.78;;;;;;;8.33;78.97;100882.09;5030295;28;20038;-42
2023/04/26 06:24:22;;;;;;;8.70;3.78;;;;;;;8.35;79.00;100888.09;5030093;28;20025;-42
2023/04/26 06:26:48;;;;;;;12.10;4.82;;;;;;;8.32;79.17;100880.47;5030273;28;20046;-42
2023/04/26 06:29:16;;;;;;;5.93;4.55;;;;;;;8.30;79.47;100888.25;5030221;28;20328;-44
2023/04/26 06:31:42;;;;;;;8.55;3.67;;;;;;;8.24;79.48;100889.53;5037485;28;20060;-43
2023/04/26 06:34:09;;;;;;;8.93;4.28;;;;;;;8.22;79.52;100897.31;5029936;28;20103;-42
2023/04/26 06:36:36;;;;;;;8.68;4.72;;;;;;;8.22;79.75;100900.91;5030365;28;20060;-43
2023/04/26 06:39:02;;;;;;;11.48;4.78;;;;;;;8.25;79.68;100904.94;5029488;28;20129;-43
2023/04/26 06:41:30;;;;;;;10.38;4.30;;;;;;;8.24;79.76;100900.56;5029923;28;20049;-43
2023/04/26 06:43:56;;;;;;;13.68;4.88;;;;;;;8.24;79.86;100892.28;5031986;28;20183;-43
2023/04/26 06:46:23;;;;;;;10.43;4.00;;;;;;;8.23;79.83;100896.19;5036239;28;20046;-45
2023/04/26 06:48:53;;;;;;;9.30;3.90;;;;;;;8.23;79.94;100901.72;5029710;28;20061;-42
2023/04/26 06:51:19;;;;;;;9.98;4.28;;;;;;;8.20;80.10;100896.84;5022999;28;20056;-43
2023/04/26 06:53:47;;;;;;;8.00;3.90;;;;;;;8.18;80.13;100893.59;5022802;28;20064;-44
2023/04/26 06:56:14;;;;;;;9.75;4.25;;;;;;;8.17;80.10;100894.72;5011980;28;20049;-43
2023/04/26 06:58:57;;;;;;;10.63;4.30;;;;;;;8.16;80.42;100890.34;5029462;28;20140;-43
2023/04/26 07:01:28;;;;;;;8.77;3.38;;;;;;;8.18;80.36;100905.44;5029030;28;20574;-42
2023/04/26 07:03:58;;;;;;;10.73;4.30;;;;;;;8.21;80.27;100899.25;5029564;28;20057;-43
2023/04/26 07:06:25;;;;;;;12.80;4.10;;;;;;;8.23;80.44;100898.97;5029432;28;20057;-43
2023/04/26 07:08:52;;;;;;;11.27;4.55;;;;;;;8.26;80.48;100898.31;5029589;28;20048;-46
2023/04/26 07:11:20;;;;;;;7.25;3.63;;;;;;;8.27;80.21;100903.53;5028977;28;20621;-43
2023/04/26 07:13:49;;;;;;;6.10;3.55;;;;;;;8.31;80.47;100903.69;5029208;28;20095;-42
2023/04/26 07:16:17;;;;;;;11.10;4.78;;;;;;;8.37;80.58;100905.13;5007055;28;20131;-45
2023/04/26 07:18:44;;;;;;;10.38;4.22;;;;;;;8.41;80.56;100906.09;5023608;28;20057;-46
2023/04/26 07:21:10;;;;;;;12.13;5.63;;;;;;;8.43;80.47;100903.81;5028332;28;20103;-45
2023/04/26 07:23:37;;;;;;;6.97;3.88;;;;;;;8.46;80.65;100900.41;5029456;28;20493;-43
2023/04/26 07:26:04;;;;;;;12.13;3.47;;;;;;;8.48;80.45;100898.13;5023604;28;20495;-46
2023/04/26 07:28:31;;;;;;;29.38;7.85;;;;;;;8.50;80.50;100906.88;5026552;28;20037;-43
2023/04/26 07:30:59;;;;;;;8.35;3.42;;;;;;;8.56;80.41;100894.53;5026035;28;20051;-44
2023/04/26 07:33:26;;;;;;;8.02;3.60;;;;;;;8.69;80.18;100899.06;5020347;28;20049;-43
2023/04/26 07:35:56;;;;;;;5.93;2.80;;;;;;;8.87;80.05;100899.84;5011459;28;20574;-44
2023/04/26 07:38:24;;;;;;;11.13;2.70;;;;;;;9.10;79.57;100890.16;5024300;28;20483;-47
2023/04/26 07:40:51;;;;;;;7.78;3.28;;;;;;;9.37;79.48;100891.66;5027577;28;20053;-46
2023/04/26 07:43:20;;;;;;;11.18;3.10;;;;;;;9.66;79.24;100902.69;5027331;28;20528;-44
2023/04/26 07:45:47;;;;;;;8.30;2.88;;;;;;;9.91;78.96;100895.34;5031649;28;20049;-47
2023/04/26 07:48:14;;;;;;;4.45;2.35;;;;;;;10.11;78.72;100900.88;5029005;28;20048;-46
2023/04/26 07:50:41;;;;;;;7.00;2.97;;;;;;;10.27;78.36;100901.91;5028926;28;20487;-49
2023/04/26 07:53:07;;;;;;;9.02;2.70;;;;;;;10.37;77.89;100904.28;5028715;28;20045;-44
2023/04/26 07:55:36;;;;;;;7.05;2.95;;;;;;;10.47;77.65;100905.78;5028418;28;20049;-44
2023/04/26 07:58:03;;;;;;;7.88;2.22;;;;;;;10.57;77.24;100907.31;5037833;28;20080;-44
2023/04/26 08:00:31;;;;;;;8.45;2.40;;;;;;;10.68;77.07;100900.19;5027025;28;20053;-45
2023/04/26 08:02:58;;;;;;;7.75;2.28;;;;;;;10.78;76.80;100900.56;5028009;28;20054;-49
2023/04/26 08:05:26;;;;;;;8.18;4.07;;;;;;;10.89;76.45;100895.41;5034669;28;20077;-46
2023/04/26 08:07:53;;;;;;;8.70;2.85;;;;;;;11.01;76.38;100900.97;5028347;28;20107;-51
2023/04/26 08:10:20;;;;;;;4.60;2.55;;;;;;;11.14;76.08;100904.56;5028612;28;20041;-45
2023/04/26 08:12:49;;;;;;;8.63;3.35;;;;;;;11.27;75.70;100907.00;5028045;28;20045;-45
2023/04/26 08:15:15;;;;;;;4.95;2.65;;;;;;;11.40;75.68;100903.09;5029319;28;20053;-46
2023/04/26 08:17:42;;;;;;;5.28;2.28;;;;;;;11.48;75.35;100907.69;5010675;28;20152;-45
2023/04/26 08:20:09;;;;;;;6.03;2.50;;;;;;;11.56;74.86;100905.97;5025452;28;20050;-44
2023/04/26 08:22:36;;;;;;;10.23;2.63;;;;;;;11.68;74.65;100914.25;5010551;28;20115;-45
2023/04/26 08:25:03;;;;;;;6.93;2.20;;;;;;;11.74;74.23;100920.41;4990355;28;20045;-47
2023/04/26 08:27:33;;;;;;;5.65;2.42;;;;;;;11.80;73.82;100913.47;5008732;28;20053;-49
2023/04/26 08:30:00;;;;;;;7.53;2.90;;;;;;;11.87;73.38;100922.00;5009476;28;20414;-44
2023/04/26 08:32:26;;;;;;;8.75;2.42;;;;;;;11.96;73.24;100917.13;5007989;28;20045;-46
2023/04/26 08:34:53;;;;;;;7.60;2.38;;;;;;;12.04;72.71;100908.69;4989882;28;20056;-46
2023/04/26 08:37:20;;;;;;;6.35;2.45;;;;;;;12.16;72.58;100910.59;5008349;28;20053;-47
2023/04/26 08:39:47;;;;;;;10.52;2.20;;;;;;;12.30;72.31;100913.00;5008238;28;20147;-46
2023/04/26 08:42:15;;;;;;;6.57;2.03;;;;;;;12.45;71.72;100910.25;5006823;28;20112;-44
2023/04/26 08:44:43;;;;;;;10.38;2.47;;;;;;;12.61;71.33;100908.34;5007796;28;20199;-51
2023/04/26 08:47:30;;;;;;;9.52;2.50;;;;;;;12.75;71.07;100907.91;5007953;28;20128;-51
2023/04/26 08:50:02;;;;;;;8.13;2.30;;;;;;;12.81;70.17;100907.28;5008411;28;20570;-50
2023/04/26 08:52:30;;;;;;;;;;;;;;;12.81;70.45;100907.28;5019845;28;20483;-45
2023/04/26 08:54:59;;;;;;;5.75;2.15;;;;;;;12.88;69.75;100905.88;5021129;28;20238;-47
2023/04/26 08:57:26;;;;;;;12.23;3.78;;;;;;;12.98;69.29;100908.13;5021969;28;20056;-45
2023/04/26 08:59:56;;;;;;;4.40;2.50;;;;;;;13.10;68.85;100902.53;5021370;28;20502;-45
2023/04/26 09:02:23;;;;;;;8.25;2.45;;;;;;;13.17;68.09;100913.81;5020472;28;20052;-45
2023/04/26 09:04:50;;;;;;;4.57;1.95;;;;;;;13.18;67.72;100915.44;5021309;28;20396;-44
2023/04/26 09:07:29;;;;;;;9.27;2.50;;;;;;;13.19;67.05;100909.50;5020728;28;20503;-48
2023/04/26 09:09:57;;;;;;;14.60;3.60;;;;;;;13.14;66.65;100909.78;5023486;28;20064;-51
2023/04/26 09:12:24;;;;;;;11.95;4.07;;;;;;;13.15;66.13;100916.16;5025500;28;20049;-47
2023/04/26 09:14:51;;;;;;;9.95;2.13;;;;;;;13.50;66.14;100905.91;5024707;28;20053;-46
2023/04/26 09:17:29;;;;;;;5.63;2.13;;;;;;;14.29;65.00;100914.84;5024305;28;20799;-48
2023/04/26 09:19:57;;;;;;;5.55;2.17;;;;;;;14.76;64.28;100901.50;5010708;28;20076;-45
2023/04/26 09:22:33;;;;;;;8.57;2.47;;;;;;;15.39;63.55;100912.16;5009030;28;20132;-48
2023/04/26 09:25:04;;;;;;;5.78;2.42;;;;;;;16.17;62.24;100908.59;5010783;28;20099;-47
2023/04/26 09:27:36;;;;;;;11.60;2.83;;;;;;;16.80;60.68;100908.56;5011768;28;20077;-51
2023/04/26 09:30:05;;;;;;;;;;;;;;;17.16;60.82;100904.94;5012039;28;20372;-45
2023/04/26 09:33:03;;;;;;;11.75;3.47;;;;;;;17.66;59.45;100908.19;5009323;28;19936;-48
2023/04/26 09:35:41;;;;;;;7.50;2.10;;;;;;;18.01;57.93;100905.59;5010021;28;20092;-48
2023/04/26 09:38:13;;;;;;;5.25;2.47;;;;;;;18.16;56.37;100912.91;5010408;28;20049;-46
2023/04/26 09:40:42;;;;;;;11.93;4.18;;;;;;;18.16;54.94;100910.88;5019138;28;20042;-44
2023/04/26 09:43:17;;;;;;;11.18;2.25;;;;;;;18.10;54.71;100903.25;5024738;28;20092;-46
2023/04/26 09:45:49;;;;;;;5.93;2.30;;;;;;;18.16;53.58;100912.91;5023591;28;20503;-43
2023/04/26 09:48:29;;;;;;;5.45;1.88;;;;;;;18.11;53.26;100904.84;5023844;28;20502;-45
2023/04/26 09:51:17;;;;;;;8.40;2.60;;;;;;;17.94;52.19;100916.75;5024327;28;20049;-45
2023/04/26 09:53:46;;;;;;;8.50;2.15;;;;;;;17.73;52.12;100906.22;5023747;28;20055;-50
2023/04/26 09:56:14;;;;;;;5.95;2.33;;;;;;;17.65;51.99;100910.19;5024752;28;20057;-44
2023/04/26 09:58:50;;;;;;;7.20;2.35;;;;;;;17.37;51.82;100913.50;5023552;28;20044;-43
2023/04/26 10:01:18;;;;;;;6.13;2.20;;;;;;;17.23;51.34;100916.22;5023352;28;20060;-42
2023/04/26 10:03:46;;;;;;;7.75;2.63;;;;;;;16.84;51.46;100917.78;5023848;28;20053;-42
2023/04/26 10:06:15;;;;;;;4.65;2.45;;;;;;;16.43;51.85;100916.91;5018854;28;20516;-45
2023/04/26 10:08:42;;;;;;;5.95;2.38;;;;;;;15.97;51.71;100915.47;5022797;28;20057;-45
2023/04/26 10:11:12;;;;;;;12.00;5.50;;;;;;;15.75;52.19;100914.38;5005304;28;20414;-49
2023/04/26 10:13:40;;;;;;;10.73;2.33;;;;;;;15.72;52.68;100909.53;5023543;28;20034;-48
2023/04/26 10:16:11;;;;;;;9.05;2.00;;;;;;;15.74;52.88;100915.56;5022926;28;20045;-46
2023/04/26 10:18:38;;;;;;;5.25;2.10;;;;;;;15.87;52.59;100913.34;5023937;28;20048;-45
2023/04/26 10:21:20;;;;;;;4.28;2.08;;;;;;;15.88;52.58;100914.97;5018080;28;20060;-45
2023/04/26 10:23:48;;;;;;;11.05;3.20;;;;;;;15.85;52.28;100913.72;5022553;28;20049;-51
2023/04/26 10:26:51;;;;;;;7.43;2.13;;;;;;;15.86;52.29;100908.94;5022813;28;20060;-46
2023/04/26 10:29:20;;;;;;;12.68;2.97;;;;;;;15.80;52.22;100905.69;5022616;28;20084;-47
2023/04/26 10:32:03;;;;;;;5.88;2.15;;;;;;;15.77;52.65;100912.81;5022480;28;20541;-46
2023/04/26 10:34:31;;;;;;;5.10;2.25;;;;;;;15.93;53.02;100909.84;5022166;28;20045;-50
2023/04/26 10:37:17;;;;;;;5.85;2.15;;;;;;;16.26;52.54;100906.28;5022449;28;20049;-47
2023/04/26 10:39:45;;;;;;;6.43;1.90;;;;;;;16.23;52.75;100909.88;5023705;28;20161;-49
2023/04/26 10:42:23;;;;;;;4.40;1.95;;;;;;;16.58;52.14;100901.94;5022797;28;20072;-47
2023/04/26 10:45:32;;;;;;;9.25;2.25;;;;;;;17.04;51.39;100908.03;5024688;28;20041;-45
2023/04/26 10:48:18;;;;;;;8.50;2.22;;;;;;;17.26;50.58;100909.81;5015303;28;20085;-46
2023/04/26 10:50:58;;;;;;;8.75;3.28;;;;;;;17.23;50.85;100905.00;5007211;28;20053;-50
2023/04/26 10:53:26;;;;;;;2.88;2.05;;;;;;;17.15;50.76;100900.53;5008962;28;20127;-46
2023/04/26 10:55:53;;;;;;;7.05;1.67;;;;;;;16.90;50.84;100902.28;4991243;28;20919;-45
2023/04/26 10:58:33;;;;;;;5.40;2.38;;;;;;;16.63;51.27;100900.78;5008939;28;20050;-51
2023/04/26 11:01:17;;;;;;;7.60;2.30;;;;;;;16.24;51.79;100903.91;5016938;28;20300;-49
2023/04/26 11:03:56;;;;;;;4.80;2.60;;;;;;;16.01;52.34;100897.59;5021350;28;20084;-46
2023/04/26 11:06:28;;;;;;;5.78;2.50;;;;;;;15.84;52.34;100895.34;5019865;28;20628;-46
2023/04/26 11:08:58;;;;;;;4.47;1.87;;;;;;;15.68;52.25;100894.72;5021429;28;20045;-45
2023/04/26 11:11:28;;;;;;;4.15;2.13;;;;;;;15.49;52.31;100906.78;5020753;28;20291;-50
2023/04/26 11:13:55;;;;;;;6.28;2.33;;;;;;;15.37;52.46;100897.78;5021037;28;20057;-45
2023/04/26 11:16:25;;;;;;;5.22;2.58;;;;;;;15.18;52.36;100895.88;5020561;28;20037;-46
2023/04/26 11:18:53;;;;;;;6.82;2.00;;;;;;;15.00;52.75;100895.56;5021309;28;20056;-47
2023/04/26 11:21:20;;;;;;;13.55;2.25;;;;;;;14.91;52.82;100894.19;5021625;28;20045;-45
2023/04/26 11:23:54;;;;;;;7.93;2.65;;;;;;;14.77;53.19;100889.19;5021743;28;20060;-44
2023/04/26 11:26:21;;;;;;;6.25;2.08;;;;;;;14.60;53.16;100882.09;5020774;28;20053;-47
2023/04/26 11:28:48;;;;;;;8.80;3.70;;;;;;;14.42;53.44;100888.50;5003171;28;21752;-45
2023/04/26 11:31:17;;;;;;;10.50;2.33;;;;;;;14.34;53.85;100895.09;5021292;28;20712;-44
2023/04/26 11:33:45;;;;;;;6.10;2.45;;;;;;;14.26;53.94;100904.44;5020596;28;20049;-45
2023/04/26 11:36:16;;;;;;;7.47;2.35;;;;;;;14.18;54.12;100895.13;5010493;28;20520;-45